Time;durP1;ratioP1;P1;durP2;ratioP2;P2;SDS_P1;SDS_P2;PMS_P1;PMS_P2;Temp;Humidity;BMP_temperature;BMP_pressure;BME280_temperature;BME280_humidity;BME280_pressure;Samples;Min_cycle;Max_cycle;Signal;HPM_P1;HPM_P2
2022/03/06 00:00:04;;;;;;;51.35;23.73;;;-1.20;99.90;;;;;;5034073;28;20096;-73
2022/03/06 00:02:29;;;;;;;55.83;23.60;;;-1.20;99.90;;;;;;5034709;28;20029;-73
2022/03/06 00:04:55;;;;;;;47.70;23.02;;;-1.20;99.90;;;;;;5034189;28;20026;-73
2022/03/06 00:07:20;;;;;;;46.28;23.13;;;-1.20;99.90;;;;;;5034248;28;20041;-73
2022/03/06 00:09:46;;;;;;;43.85;21.95;;;-1.20;99.90;;;;;;5034589;28;20022;-73
2022/03/06 00:12:11;;;;;;;44.35;21.38;;;-1.20;99.90;;;;;;5034185;28;20050;-73
2022/03/06 00:14:38;;;;;;;44.10;21.05;;;-1.20;99.90;;;;;;5033872;28;20064;-68
2022/03/06 00:17:03;;;;;;;41.17;21.23;;;-1.20;99.90;;;;;;5033860;28;20040;-73
2022/03/06 00:19:29;;;;;;;42.10;20.48;;;-1.30;99.90;;;;;;5034714;28;20029;-69
2022/03/06 00:21:55;;;;;;;39.10;20.23;;;-1.30;99.90;;;;;;5033819;28;20038;-73
2022/03/06 00:24:20;;;;;;;41.45;20.45;;;-1.30;99.90;;;;;;5034240;28;20021;-69
2022/03/06 00:26:46;;;;;;;45.88;20.33;;;-1.30;99.90;;;;;;5033952;28;20029;-73
2022/03/06 00:29:11;;;;;;;43.78;21.55;;;-1.30;99.90;;;;;;5033568;28;20079;-73
2022/03/06 00:31:39;;;;;;;45.63;22.70;;;-1.30;99.90;;;;;;5016156;28;20053;-69
2022/03/06 00:34:05;;;;;;;39.65;19.48;;;-1.30;99.90;;;;;;5016312;28;20021;-69
2022/03/06 00:36:30;;;;;;;41.38;19.33;;;-1.30;99.90;;;;;;5033581;28;20088;-73
2022/03/06 00:38:56;;;;;;;40.80;20.52;;;-1.20;99.90;;;;;;5014429;28;20438;-73
2022/03/06 00:41:23;;;;;;;36.10;18.23;;;-1.20;99.90;;;;;;5014038;28;20025;-69
2022/03/06 00:43:49;;;;;;;37.78;18.33;;;-1.20;99.90;;;;;;4995849;28;20026;-68
2022/03/06 00:46:15;;;;;;;41.05;19.90;;;-1.20;99.90;;;;;;5004270;28;20026;-69
2022/03/06 00:48:40;;;;;;;42.58;19.73;;;-1.20;99.90;;;;;;5014174;28;20531;-73
2022/03/06 00:51:06;;;;;;;39.55;19.50;;;-1.20;99.90;;;;;;5033896;28;20100;-69
2022/03/06 00:53:32;;;;;;;32.17;18.15;;;-1.20;99.90;;;;;;5034529;28;20025;-72
2022/03/06 00:55:57;;;;;;;34.17;18.13;;;-1.20;99.90;;;;;;5034192;28;20115;-69
2022/03/06 00:58:23;;;;;;;38.78;19.73;;;-1.10;99.90;;;;;;5016599;28;20064;-69
2022/03/06 01:00:49;;;;;;;36.08;19.48;;;-1.10;99.90;;;;;;5034448;28;20029;-70
2022/03/06 01:03:17;;;;;;;38.70;18.95;;;-1.10;99.90;;;;;;5034416;28;20052;-73
2022/03/06 01:05:43;;;;;;;39.00;19.73;;;-1.10;99.90;;;;;;5033934;28;20032;-73
2022/03/06 01:08:09;;;;;;;34.38;18.58;;;-1.10;99.90;;;;;;5034148;28;20034;-68
2022/03/06 01:10:36;;;;;;;36.90;18.52;;;-1.10;99.90;;;;;;5016478;28;20028;-70
2022/03/06 01:13:04;;;;;;;34.75;17.38;;;-1.10;99.90;;;;;;5034053;28;20018;-69
2022/03/06 01:15:30;;;;;;;33.30;17.13;;;-1.10;99.90;;;;;;5033805;28;20036;-69
2022/03/06 01:17:56;;;;;;;42.40;19.33;;;-1.10;99.90;;;;;;5016269;28;20529;-69
2022/03/06 01:20:23;;;;;;;37.03;18.83;;;-1.10;99.90;;;;;;5034086;28;20021;-73
2022/03/06 01:22:50;;;;;;;33.55;18.88;;;-1.10;99.90;;;;;;5016230;28;20525;-68
2022/03/06 01:25:15;;;;;;;35.33;18.52;;;-1.10;99.90;;;;;;5033818;28;20029;-72
2022/03/06 01:27:41;;;;;;;36.67;18.55;;;-1.10;99.90;;;;;;5033771;28;20026;-69
2022/03/06 01:30:09;;;;;;;31.45;17.48;;;-1.10;99.90;;;;;;5033899;28;20498;-70
2022/03/06 01:32:35;;;;;;;36.53;19.55;;;-1.10;99.90;;;;;;5033879;28;20021;-72
2022/03/06 01:35:00;;;;;;;35.80;17.65;;;-1.10;99.90;;;;;;5016081;28;20025;-69
2022/03/06 01:37:26;;;;;;;37.78;18.77;;;-1.10;99.90;;;;;;5033371;28;20533;-69
2022/03/06 01:39:52;;;;;;;35.95;17.98;;;-1.10;99.90;;;;;;5033764;28;20403;-69
2022/03/06 01:42:18;;;;;;;32.22;17.10;;;-1.20;99.90;;;;;;5033932;28;20021;-69
2022/03/06 01:44:51;;;;;;;32.33;17.13;;;-1.10;99.90;;;;;;5016225;28;20140;-72
2022/03/06 01:47:54;;;;;;;34.40;18.77;;;-1.10;99.90;;;;;;5016050;28;20033;-69
2022/03/06 01:50:20;;;;;;;;;;;-1.10;99.90;;;;;;5034372;28;20018;-69
2022/03/06 01:52:47;;;;;;;39.95;17.58;;;-1.10;99.90;;;;;;5033751;28;19912;-72
2022/03/06 01:55:14;;;;;;;31.63;17.25;;;-1.10;99.90;;;;;;5033697;28;20033;-69
2022/03/06 01:57:41;;;;;;;34.65;18.15;;;-1.10;99.90;;;;;;5033647;28;20134;-73
2022/03/06 02:00:12;;;;;;;39.35;18.23;;;-1.10;99.90;;;;;;5033628;28;20057;-73
2022/03/06 02:02:39;;;;;;;39.38;18.73;;;-1.10;99.90;;;;;;5033732;28;20101;-69
2022/03/06 02:05:05;;;;;;;32.58;17.85;;;-1.10;99.90;;;;;;5033602;28;20052;-73
2022/03/06 02:07:30;;;;;;;33.75;18.08;;;-1.10;99.90;;;;;;5033455;28;20083;-70
2022/03/06 02:09:57;;;;;;;35.17;18.48;;;-1.10;99.90;;;;;;5033498;28;20479;-72
2022/03/06 02:12:23;;;;;;;36.53;17.98;;;-1.00;99.90;;;;;;5033382;28;20060;-69
2022/03/06 02:14:54;;;;;;;39.55;19.25;;;-1.10;99.90;;;;;;5033480;28;20028;-72
2022/03/06 02:17:21;;;;;;;34.83;18.25;;;-1.10;99.90;;;;;;5033444;28;20034;-73
2022/03/06 02:19:52;;;;;;;32.92;18.52;;;-1.10;99.90;;;;;;5033313;28;20026;-73
2022/03/06 02:22:19;;;;;;;34.80;17.88;;;-1.10;99.90;;;;;;5033482;28;20438;-69
2022/03/06 02:24:45;;;;;;;34.67;17.75;;;-1.10;99.90;;;;;;5033373;28;20025;-69
2022/03/06 02:27:10;;;;;;;38.95;19.95;;;-1.10;99.90;;;;;;5033356;28;20468;-73
2022/03/06 02:29:39;;;;;;;37.10;18.95;;;-1.10;99.90;;;;;;5033548;28;20101;-69
2022/03/06 02:32:08;;;;;;;39.30;18.60;;;-1.10;99.90;;;;;;5033186;28;20022;-73
2022/03/06 02:34:34;;;;;;;37.92;19.27;;;-1.10;99.90;;;;;;5015461;28;20467;-73
2022/03/06 02:37:00;;;;;;;38.72;19.25;;;-1.10;99.90;;;;;;5033121;28;20048;-69
2022/03/06 02:39:26;;;;;;;39.65;19.17;;;-1.10;99.90;;;;;;5033364;28;20497;-73
2022/03/06 02:41:51;;;;;;;35.67;18.42;;;-1.10;99.90;;;;;;5033185;28;20048;-69
2022/03/06 02:44:17;;;;;;;35.10;19.42;;;-1.20;99.90;;;;;;5033248;28;20479;-73
2022/03/06 02:46:46;;;;;;;44.22;19.40;;;-1.10;99.90;;;;;;5033132;28;20029;-69
2022/03/06 02:49:13;;;;;;;39.28;20.48;;;-1.10;99.90;;;;;;5015478;28;20478;-69
2022/03/06 02:51:43;;;;;;;33.75;17.85;;;-1.10;99.90;;;;;;5015454;28;20017;-69
2022/03/06 02:54:10;;;;;;;38.70;18.95;;;-1.10;99.90;;;;;;5033270;28;20026;-69
2022/03/06 02:56:36;;;;;;;37.45;18.30;;;-1.10;99.90;;;;;;5033011;28;20044;-73
2022/03/06 02:59:03;;;;;;;36.15;19.73;;;-1.10;99.90;;;;;;5025438;28;20049;-69
2022/03/06 03:01:29;;;;;;;37.10;20.05;;;-1.10;99.90;;;;;;5052862;28;20025;-69
2022/03/06 03:03:55;;;;;;;39.17;19.88;;;-1.10;99.90;;;;;;5035130;28;20052;-73
2022/03/06 03:06:20;;;;;;;39.60;20.23;;;-1.20;99.90;;;;;;5035127;28;20048;-73
2022/03/06 03:08:46;;;;;;;34.70;19.40;;;-1.20;99.90;;;;;;5052919;28;20059;-73
2022/03/06 03:11:12;;;;;;;37.42;18.90;;;-1.20;99.90;;;;;;5052841;28;20032;-73
2022/03/06 03:13:38;;;;;;;36.53;18.67;;;-1.20;99.90;;;;;;5053806;28;20028;-70
2022/03/06 03:16:04;;;;;;;41.72;20.23;;;-1.20;99.90;;;;;;5056375;28;20037;-68
2022/03/06 03:18:30;;;;;;;35.55;19.23;;;-1.20;99.90;;;;;;5056656;28;20347;-69
2022/03/06 03:20:55;;;;;;;29.27;17.90;;;-1.20;99.90;;;;;;5056581;28;20025;-72
2022/03/06 03:23:21;;;;;;;33.83;19.00;;;-1.20;99.90;;;;;;5038845;28;20025;-69
2022/03/06 03:25:47;;;;;;;34.53;16.88;;;-1.20;99.90;;;;;;5056233;28;20489;-69
2022/03/06 03:28:12;;;;;;;38.00;19.17;;;-1.30;99.90;;;;;;5056366;28;20486;-69
2022/03/06 03:30:38;;;;;;;38.03;19.33;;;-1.30;99.90;;;;;;5038482;28;20475;-69
2022/03/06 03:33:03;;;;;;;37.38;19.75;;;-1.30;99.90;;;;;;5056279;28;20064;-72
2022/03/06 03:35:29;;;;;;;40.70;20.85;;;-1.30;99.90;;;;;;5038376;28;20031;-69
2022/03/06 03:37:54;;;;;;;33.83;19.95;;;-1.30;99.90;;;;;;5056219;28;20025;-69
2022/03/06 03:40:20;;;;;;;35.17;19.85;;;-1.30;99.90;;;;;;5038395;28;20363;-69
2022/03/06 03:42:46;;;;;;;44.00;21.63;;;-1.30;99.90;;;;;;5056080;28;20493;-69
2022/03/06 03:45:11;;;;;;;36.30;18.98;;;-1.30;99.90;;;;;;5038261;28;20363;-70
2022/03/06 03:47:37;;;;;;;39.53;19.92;;;-1.20;99.90;;;;;;5056299;28;20032;-73
2022/03/06 03:50:04;;;;;;;37.67;17.48;;;-1.20;99.90;;;;;;5038098;28;20032;-72
2022/03/06 03:52:30;;;;;;;37.88;19.05;;;-1.30;99.90;;;;;;5055885;28;20029;-69
2022/03/06 03:54:55;;;;;;;37.03;17.90;;;-1.20;99.90;;;;;;5038008;28;20047;-73
2022/03/06 03:57:23;;;;;;;37.28;18.63;;;-1.20;99.90;;;;;;5037598;28;20055;-73
2022/03/06 03:59:49;;;;;;;36.60;18.90;;;-1.20;99.90;;;;;;5037828;28;20029;-69
2022/03/06 04:02:15;;;;;;;34.35;18.02;;;-1.20;99.90;;;;;;5055723;28;20061;-69
2022/03/06 04:04:41;;;;;;;35.13;17.17;;;-1.20;99.90;;;;;;5055674;28;20057;-68
2022/03/06 04:07:06;;;;;;;38.30;17.65;;;-1.20;99.90;;;;;;5055690;28;20017;-68
2022/03/06 04:09:32;;;;;;;40.15;19.33;;;-1.20;99.90;;;;;;5037807;28;20468;-69
2022/03/06 04:11:58;;;;;;;34.92;19.23;;;-1.30;99.90;;;;;;5055486;28;20032;-69
2022/03/06 04:14:24;;;;;;;38.40;19.08;;;-1.30;99.90;;;;;;5037713;28;20025;-69
2022/03/06 04:16:49;;;;;;;35.45;18.70;;;-1.30;99.90;;;;;;5055313;28;20032;-69
2022/03/06 04:19:15;;;;;;;34.00;17.63;;;-1.30;99.90;;;;;;5055464;28;20071;-69
2022/03/06 04:21:40;;;;;;;35.88;18.23;;;-1.20;99.90;;;;;;5055368;28;20082;-69
2022/03/06 04:24:07;;;;;;;41.30;19.38;;;-1.30;99.90;;;;;;5055467;28;20359;-73
2022/03/06 04:26:33;;;;;;;38.25;20.17;;;-1.30;99.90;;;;;;5054101;28;20486;-69
2022/03/06 04:28:59;;;;;;;35.72;19.40;;;-1.30;99.90;;;;;;5055243;28;20055;-73
2022/03/06 04:31:24;;;;;;;33.17;17.83;;;-1.30;99.90;;;;;;5055183;28;20055;-69
2022/03/06 04:33:50;;;;;;;31.08;16.45;;;-1.30;99.90;;;;;;5055083;28;20058;-70
2022/03/06 04:36:16;;;;;;;35.30;18.30;;;-1.30;99.90;;;;;;5037086;28;20128;-69
2022/03/06 04:38:41;;;;;;;35.58;17.83;;;-1.30;99.90;;;;;;5054951;28;20053;-73
2022/03/06 04:41:07;;;;;;;40.15;22.20;;;-1.30;99.90;;;;;;5055009;28;20025;-72
2022/03/06 04:43:32;;;;;;;38.88;19.92;;;-1.30;99.90;;;;;;5054963;28;20025;-72
2022/03/06 04:45:58;;;;;;;37.10;19.00;;;-1.30;99.90;;;;;;5054869;28;20017;-72
2022/03/06 04:48:24;;;;;;;34.97;17.27;;;-1.30;99.90;;;;;;5054746;28;20071;-73
2022/03/06 04:50:50;;;;;;;31.95;17.08;;;-1.30;99.90;;;;;;5054727;28;20502;-70
2022/03/06 04:53:15;;;;;;;34.50;18.25;;;-1.30;99.90;;;;;;5036940;28;20028;-69
2022/03/06 04:55:41;;;;;;;35.60;18.13;;;-1.20;99.90;;;;;;5054556;28;20059;-73
2022/03/06 04:58:07;;;;;;;31.55;17.55;;;-1.30;99.90;;;;;;5054542;28;20053;-69
2022/03/06 05:00:33;;;;;;;33.60;17.92;;;-1.30;99.90;;;;;;5054670;28;20096;-69
2022/03/06 05:02:59;;;;;;;43.67;21.35;;;-1.40;99.90;;;;;;5054483;28;20063;-73
2022/03/06 05:05:25;;;;;;;37.85;19.38;;;-1.30;99.90;;;;;;5036655;28;20120;-73
2022/03/06 05:07:51;;;;;;;35.85;19.95;;;-1.30;99.90;;;;;;5054491;28;20029;-72
2022/03/06 05:10:16;;;;;;;35.38;18.63;;;-1.30;99.90;;;;;;5054558;28;20017;-72
2022/03/06 05:12:42;;;;;;;34.63;18.70;;;-1.30;99.90;;;;;;5054381;28;20079;-72
2022/03/06 05:15:12;;;;;;;34.10;19.90;;;-1.40;99.90;;;;;;5054277;28;20100;-71
2022/03/06 05:17:38;;;;;;;30.42;15.73;;;-1.40;99.90;;;;;;5054237;28;20029;-69
2022/03/06 05:20:05;;;;;;;32.17;18.27;;;-1.40;99.90;;;;;;5054308;28;20530;-68
2022/03/06 05:22:31;;;;;;;36.50;19.17;;;-1.40;99.90;;;;;;5054481;28;20021;-68
2022/03/06 05:24:58;;;;;;;33.25;17.90;;;-1.40;99.90;;;;;;5054235;28;20028;-73
2022/03/06 05:27:25;;;;;;;33.33;17.48;;;-1.40;99.90;;;;;;5036289;28;20028;-72
2022/03/06 05:29:50;;;;;;;33.53;17.30;;;-1.40;99.90;;;;;;5054146;28;20051;-69
2022/03/06 05:32:16;;;;;;;36.72;17.70;;;-1.40;99.90;;;;;;5054060;28;20059;-69
2022/03/06 05:34:41;;;;;;;35.25;17.98;;;-1.40;99.90;;;;;;5036149;28;20394;-72
2022/03/06 05:37:07;;;;;;;32.17;19.10;;;-1.40;99.90;;;;;;5053509;28;20375;-71
2022/03/06 05:39:33;;;;;;;31.20;16.88;;;-1.40;99.90;;;;;;5053973;28;20025;-72
2022/03/06 05:41:58;;;;;;;35.22;18.45;;;-1.40;99.90;;;;;;5053875;28;20419;-72
2022/03/06 05:44:24;;;;;;;33.10;19.98;;;-1.40;99.90;;;;;;5035945;28;20476;-69
2022/03/06 05:46:50;;;;;;;32.42;17.95;;;-1.40;99.90;;;;;;5053617;28;20033;-68
2022/03/06 05:49:16;;;;;;;37.67;19.10;;;-1.40;99.90;;;;;;5035944;28;20009;-72
2022/03/06 05:51:44;;;;;;;34.33;19.25;;;-1.40;99.90;;;;;;5053632;28;20430;-68
2022/03/06 05:54:10;;;;;;;32.58;16.98;;;-1.40;99.90;;;;;;5053711;28;20075;-73
2022/03/06 05:56:36;;;;;;;37.08;18.90;;;-1.40;99.90;;;;;;5053549;28;20037;-73
2022/03/06 05:59:03;;;;;;;33.55;18.50;;;-1.30;99.90;;;;;;5053761;28;20129;-69
2022/03/06 06:01:29;;;;;;;33.55;18.38;;;-1.30;99.90;;;;;;5035704;28;20110;-69
2022/03/06 06:03:59;;;;;;;32.67;18.35;;;-1.40;99.90;;;;;;5053448;28;20053;-69
2022/03/06 06:06:28;;;;;;;33.13;18.65;;;-1.40;99.90;;;;;;5053572;28;20029;-73
2022/03/06 06:08:54;;;;;;;39.25;18.58;;;-1.40;99.90;;;;;;5053404;28;20433;-73
2022/03/06 06:11:20;;;;;;;33.72;17.23;;;-1.40;99.90;;;;;;5053460;28;20489;-74
2022/03/06 06:13:47;;;;;;;33.22;17.55;;;-1.40;99.90;;;;;;5053329;28;20021;-73
2022/03/06 06:16:13;;;;;;;34.25;16.77;;;-1.40;99.90;;;;;;5053230;28;20083;-73
2022/03/06 06:18:40;;;;;;;36.80;17.52;;;-1.40;99.90;;;;;;5053442;28;20017;-72
2022/03/06 06:21:06;;;;;;;37.55;19.98;;;-1.30;99.90;;;;;;5053335;28;20096;-69
2022/03/06 06:23:32;;;;;;;37.70;18.52;;;-1.30;99.90;;;;;;5035485;28;20111;-69
2022/03/06 06:25:57;;;;;;;35.90;18.25;;;-1.40;99.90;;;;;;5053168;28;20021;-69
2022/03/06 06:28:23;;;;;;;37.20;19.58;;;-1.40;99.90;;;;;;5035380;28;20501;-69
2022/03/06 06:30:49;;;;;;;38.55;18.30;;;-1.40;99.90;;;;;;5053168;28;20405;-73
2022/03/06 06:33:14;;;;;;;42.20;20.38;;;-1.40;99.90;;;;;;5053263;28;20517;-72
2022/03/06 06:35:40;;;;;;;35.13;19.25;;;-1.30;99.90;;;;;;5035370;28;20064;-69
2022/03/06 06:38:06;;;;;;;37.22;17.65;;;-1.30;99.90;;;;;;5044871;28;20112;-72
2022/03/06 06:40:31;;;;;;;36.00;20.98;;;-1.30;99.90;;;;;;4995247;28;20061;-72
2022/03/06 06:42:58;;;;;;;34.83;17.35;;;-1.30;99.90;;;;;;5013429;28;20598;-69
2022/03/06 06:45:24;;;;;;;34.63;17.42;;;-1.30;99.90;;;;;;4995862;28;20037;-72
2022/03/06 06:47:49;;;;;;;34.35;18.88;;;-1.30;99.90;;;;;;5013356;28;20104;-69
2022/03/06 06:50:15;;;;;;;30.33;13.93;;;-1.20;99.90;;;;;;5016907;28;20018;-72
2022/03/06 06:52:40;;;;;;;23.23;11.52;;;-1.20;99.90;;;;;;5017263;28;20026;-69
2022/03/06 06:55:06;;;;;;;20.88;13.10;;;-1.30;89.30;;;;;;5016852;28;20030;-69
2022/03/06 06:57:32;;;;;;;20.80;9.82;;;-1.30;82.00;;;;;;5016973;28;20072;-73
2022/03/06 06:59:58;;;;;;;18.40;10.18;;;-1.30;77.60;;;;;;5017166;28;20033;-72
2022/03/06 07:02:25;;;;;;;15.60;9.80;;;-1.30;77.00;;;;;;5017187;28;20026;-72
2022/03/06 07:04:50;;;;;;;25.63;12.15;;;-1.30;75.60;;;;;;5017072;28;20026;-72
2022/03/06 07:07:16;;;;;;;13.88;8.85;;;-1.30;73.30;;;;;;5016972;28;20030;-73
2022/03/06 07:09:42;;;;;;;10.95;7.47;;;-1.20;72.80;;;;;;5016162;28;20025;-73
2022/03/06 07:12:08;;;;;;;13.25;8.00;;;-1.20;71.00;;;;;;5016858;28;20037;-73
2022/03/06 07:14:34;;;;;;;13.95;8.23;;;-1.20;70.30;;;;;;5016939;28;20057;-73
2022/03/06 07:17:00;;;;;;;13.27;7.55;;;-1.10;70.60;;;;;;5016821;28;20116;-69
2022/03/06 07:19:25;;;;;;;12.80;6.93;;;-1.10;68.50;;;;;;4999322;28;20026;-70
2022/03/06 07:21:51;;;;;;;11.35;7.65;;;-1.00;67.60;;;;;;5031899;28;20045;-74
2022/03/06 07:24:17;;;;;;;12.02;7.82;;;-0.90;67.30;;;;;;5031425;28;20014;-70
2022/03/06 07:26:42;;;;;;;11.75;7.28;;;-0.90;67.20;;;;;;5016519;28;20399;-73
2022/03/06 07:29:08;;;;;;;11.50;7.97;;;-0.80;66.70;;;;;;4998930;28;20462;-69
2022/03/06 07:31:34;;;;;;;13.40;8.02;;;-0.70;66.00;;;;;;5016561;28;20557;-69
2022/03/06 07:34:00;;;;;;;11.60;8.05;;;-0.70;65.40;;;;;;5016531;28;20053;-73
2022/03/06 07:36:25;;;;;;;11.70;7.93;;;-0.60;64.40;;;;;;4998850;28;20038;-69
2022/03/06 07:38:51;;;;;;;12.32;8.35;;;-0.60;63.70;;;;;;5014697;28;20407;-73
2022/03/06 07:41:17;;;;;;;14.88;8.52;;;-0.60;64.60;;;;;;5016430;28;20029;-69
2022/03/06 07:43:43;;;;;;;13.07;7.80;;;-0.50;63.90;;;;;;5016404;28;20037;-73
2022/03/06 07:46:09;;;;;;;13.77;7.88;;;-0.50;64.50;;;;;;5016402;28;20445;-69
2022/03/06 07:48:34;;;;;;;12.18;7.80;;;-0.50;63.10;;;;;;5016208;28;20061;-70
2022/03/06 07:51:00;;;;;;;12.73;8.07;;;-0.50;62.00;;;;;;5016224;28;20110;-73
2022/03/06 07:53:26;;;;;;;12.55;7.25;;;-0.50;61.40;;;;;;5031238;28;20064;-70
2022/03/06 07:55:51;;;;;;;11.30;7.78;;;-0.50;62.40;;;;;;5015688;28;20026;-74
2022/03/06 07:58:17;;;;;;;13.95;7.55;;;-0.50;60.10;;;;;;5016183;28;20124;-74
2022/03/06 08:00:42;;;;;;;13.20;7.78;;;-0.50;58.90;;;;;;5015971;28;20084;-74
2022/03/06 08:03:08;;;;;;;9.73;6.72;;;-0.50;57.10;;;;;;5030986;28;20151;-74
2022/03/06 08:05:34;;;;;;;15.85;8.00;;;-0.60;55.50;;;;;;5031040;28;20502;-74
2022/03/06 08:07:59;;;;;;;11.93;7.65;;;-0.50;56.60;;;;;;5015626;28;20061;-70
2022/03/06 08:10:25;;;;;;;9.63;6.88;;;-0.50;57.60;;;;;;5030593;28;20022;-74
2022/03/06 08:12:50;;;;;;;9.70;6.90;;;-0.50;56.10;;;;;;5015695;28;20109;-71
2022/03/06 08:15:16;;;;;;;14.98;7.88;;;-0.50;56.10;;;;;;5015613;28;20386;-73
2022/03/06 08:17:42;;;;;;;16.75;10.70;;;-0.40;56.90;;;;;;5034411;28;20104;-74
2022/03/06 08:20:08;;;;;;;14.35;8.02;;;-0.50;57.50;;;;;;5034927;28;20068;-71
2022/03/06 08:22:34;;;;;;;13.15;8.43;;;-0.40;58.10;;;;;;5035393;28;20096;-73
2022/03/06 08:25:01;;;;;;;12.52;8.32;;;-0.30;58.70;;;;;;5034426;28;20033;-74
2022/03/06 08:27:26;;;;;;;13.07;7.63;;;-0.40;58.80;;;;;;5035352;28;20386;-74
2022/03/06 08:29:52;;;;;;;12.27;7.78;;;-0.50;58.60;;;;;;5035162;28;20018;-71
2022/03/06 08:32:18;;;;;;;14.77;8.30;;;-0.60;59.20;;;;;;5035255;28;20032;-74
2022/03/06 08:34:44;;;;;;;13.82;8.57;;;-0.70;59.90;;;;;;5023812;28;20021;-75
2022/03/06 08:37:09;;;;;;;14.65;9.15;;;-0.70;60.10;;;;;;5049691;28;20037;-75
2022/03/06 08:39:35;;;;;;;15.05;8.45;;;-0.70;60.50;;;;;;5050679;28;20096;-75
2022/03/06 08:42:01;;;;;;;13.48;8.27;;;-0.70;60.00;;;;;;5053757;28;20025;-75
2022/03/06 08:44:26;;;;;;;13.18;9.38;;;-0.70;60.60;;;;;;5053614;28;20025;-74
2022/03/06 08:46:52;;;;;;;13.77;9.80;;;-0.70;61.00;;;;;;5053762;28;20497;-74
2022/03/06 08:49:18;;;;;;;16.00;8.68;;;-0.70;61.50;;;;;;5049309;28;20483;-74
2022/03/06 08:51:43;;;;;;;12.13;8.40;;;-0.80;61.70;;;;;;5032122;28;20502;-70
2022/03/06 08:54:09;;;;;;;16.42;9.68;;;-0.70;63.00;;;;;;5032725;28;20025;-71
2022/03/06 08:56:34;;;;;;;14.98;9.65;;;-0.70;62.70;;;;;;5031701;28;20454;-69
2022/03/06 08:59:00;;;;;;;14.80;9.85;;;-0.70;63.20;;;;;;5016273;28;20047;-74
2022/03/06 09:01:26;;;;;;;14.02;9.05;;;-0.70;63.60;;;;;;5033617;28;20037;-69
2022/03/06 09:03:51;;;;;;;15.82;8.98;;;-0.70;63.70;;;;;;5016419;28;20032;-73
2022/03/06 09:06:17;;;;;;;14.75;9.50;;;-0.70;63.50;;;;;;5033987;28;20025;-74
2022/03/06 09:08:42;;;;;;;10.35;8.20;;;-0.70;63.80;;;;;;5034287;28;20030;-69
2022/03/06 09:11:08;;;;;;;13.65;8.18;;;-0.70;64.00;;;;;;5015839;28;20026;-73
2022/03/06 09:13:34;;;;;;;13.90;9.07;;;-0.80;64.30;;;;;;5034103;28;20068;-74
2022/03/06 09:16:01;;;;;;;14.52;9.52;;;-0.70;64.60;;;;;;5034036;28;20132;-74
2022/03/06 09:18:26;;;;;;;14.00;9.15;;;-0.80;64.20;;;;;;5033893;28;20478;-74
2022/03/06 09:20:52;;;;;;;13.35;8.18;;;-0.70;65.00;;;;;;5033666;28;20036;-70
2022/03/06 09:23:18;;;;;;;15.57;9.35;;;-0.70;64.20;;;;;;5033493;28;20029;-70
2022/03/06 09:25:43;;;;;;;16.10;9.57;;;-0.70;64.60;;;;;;5033640;28;20033;-73
2022/03/06 09:28:09;;;;;;;19.25;9.88;;;-0.60;64.90;;;;;;5032510;28;20030;-75
2022/03/06 09:30:34;;;;;;;13.43;9.07;;;-0.70;64.20;;;;;;5033611;28;20021;-75
2022/03/06 09:33:00;;;;;;;15.55;8.48;;;-0.70;64.50;;;;;;5033505;28;20029;-70
2022/03/06 09:35:26;;;;;;;12.52;8.43;;;-0.70;64.80;;;;;;5033505;28;20033;-70
2022/03/06 09:37:52;;;;;;;15.52;8.93;;;-0.70;64.50;;;;;;5033181;28;20105;-70
2022/03/06 09:40:18;;;;;;;13.15;8.38;;;-0.60;64.40;;;;;;5033207;28;20017;-74
2022/03/06 09:42:44;;;;;;;17.27;9.18;;;-0.60;63.50;;;;;;5033200;28;20029;-74
2022/03/06 09:45:11;;;;;;;12.05;8.70;;;-0.60;63.50;;;;;;5015547;28;20386;-74
2022/03/06 09:47:39;;;;;;;15.27;8.25;;;-0.60;63.80;;;;;;5033005;28;20410;-71
2022/03/06 09:50:06;;;;;;;15.55;8.82;;;-0.50;63.90;;;;;;5032937;28;20383;-70
2022/03/06 09:52:32;;;;;;;16.38;9.68;;;-0.50;63.60;;;;;;5033112;28;20022;-69
2022/03/06 09:54:58;;;;;;;17.27;9.95;;;-0.50;63.10;;;;;;5033147;28;20072;-70
2022/03/06 09:57:24;;;;;;;16.00;9.27;;;-0.50;63.50;;;;;;5032888;28;20205;-74
2022/03/06 09:59:50;;;;;;;14.18;8.73;;;-0.50;63.10;;;;;;5032795;28;20025;-74
2022/03/06 10:02:16;;;;;;;16.90;8.30;;;-0.50;62.80;;;;;;5033024;28;20029;-74
2022/03/06 10:04:42;;;;;;;16.95;10.50;;;-0.50;62.70;;;;;;5032997;28;20029;-75
2022/03/06 10:07:13;;;;;;;23.23;11.30;;;-0.50;62.50;;;;;;5033034;28;20071;-75
2022/03/06 10:09:46;;;;;;;32.88;20.88;;;-0.50;62.70;;;;;;5032837;28;20022;-69
2022/03/06 10:12:29;;;;;;;42.55;19.20;;;-0.40;62.10;;;;;;5032872;28;20017;-70
2022/03/06 10:15:05;;;;;;;31.75;15.70;;;-0.40;62.10;;;;;;5033024;28;20025;-69
2022/03/06 10:17:32;;;;;;;23.70;14.45;;;-0.30;61.70;;;;;;5015269;28;20128;-69
2022/03/06 10:20:05;;;;;;;21.55;12.23;;;-0.30;61.20;;;;;;5015091;28;20447;-74
2022/03/06 10:22:38;;;;;;;15.25;8.93;;;-0.20;61.00;;;;;;5032665;28;20022;-69
2022/03/06 10:25:09;;;;;;;17.73;11.68;;;-0.20;60.60;;;;;;5032446;28;20025;-74
2022/03/06 10:27:49;;;;;;;18.00;10.60;;;-0.20;60.80;;;;;;5032483;28;20071;-69
2022/03/06 10:30:34;;;;;;;16.83;8.88;;;-0.10;61.00;;;;;;5032356;28;20025;-74
2022/03/06 10:33:10;;;;;;;21.27;12.45;;;-0.10;60.50;;;;;;5031884;28;20044;-70
2022/03/06 10:35:44;;;;;;;40.78;21.27;;;-0.20;60.00;;;;;;5032879;28;20018;-75
2022/03/06 10:38:23;;;;;;;59.00;30.35;;;-0.20;60.10;;;;;;5032650;28;20033;-70
2022/03/06 10:40:50;;;;;;;334.52;120.55;;;-0.20;60.70;;;;;;5032420;28;20070;-70
2022/03/06 10:43:23;;;;;;;139.15;55.97;;;-0.20;60.30;;;;;;5032646;28;20475;-69
2022/03/06 10:45:50;;;;;;;59.83;24.50;;;-0.20;60.30;;;;;;5032717;28;20022;-70
2022/03/06 10:48:16;;;;;;;38.85;17.13;;;-0.20;60.00;;;;;;5014250;28;20060;-70
2022/03/06 10:50:42;;;;;;;17.00;10.48;;;-0.30;60.10;;;;;;5032442;28;20056;-70
2022/03/06 10:53:23;;;;;;;53.95;23.98;;;-0.30;59.50;;;;;;5032598;28;20097;-70
2022/03/06 10:55:50;;;;;;;17.40;8.55;;;-0.30;59.70;;;;;;5032684;28;20105;-70
2022/03/06 10:58:18;;;;;;;17.20;10.25;;;-0.30;59.00;;;;;;5032543;28;20495;-71
2022/03/06 11:00:44;;;;;;;47.33;22.25;;;-0.30;59.30;;;;;;5032029;28;20053;-70
2022/03/06 11:03:12;;;;;;;27.85;15.13;;;-0.30;59.30;;;;;;5014447;28;20501;-75
2022/03/06 11:05:42;;;;;;;10.48;7.55;;;-0.30;59.30;;;;;;5014943;28;20025;-69
2022/03/06 11:08:11;;;;;;;146.88;56.25;;;-0.40;58.60;;;;;;5032590;28;20018;-69
2022/03/06 11:10:39;;;;;;;79.53;31.48;;;-0.40;59.60;;;;;;5031823;28;20056;-74
2022/03/06 11:13:05;;;;;;;18.60;10.30;;;-0.30;60.00;;;;;;5042994;28;20063;-69
2022/03/06 11:15:31;;;;;;;13.55;8.20;;;-0.30;59.80;;;;;;5033144;28;20426;-70
2022/03/06 11:18:00;;;;;;;12.40;7.88;;;-0.40;59.30;;;;;;5031174;28;20108;-69
2022/03/06 11:20:28;;;;;;;24.95;9.10;;;-0.40;59.70;;;;;;5031843;28;20044;-69
2022/03/06 11:23:19;;;;;;;34.63;16.95;;;-0.40;60.10;;;;;;5011662;28;20029;-69
2022/03/06 11:26:09;;;;;;;14.30;9.68;;;-0.30;60.40;;;;;;5030860;28;20059;-69
2022/03/06 11:29:02;;;;;;;15.63;8.45;;;-0.30;59.60;;;;;;5029402;28;20439;-70
2022/03/06 11:31:42;;;;;;;15.30;8.45;;;-0.30;59.20;;;;;;5032013;28;20082;-70
2022/03/06 11:34:09;;;;;;;17.13;9.30;;;-0.20;59.00;;;;;;5032021;28;20092;-69
2022/03/06 11:36:47;;;;;;;17.73;10.55;;;-0.20;59.20;;;;;;5018021;28;20103;-74
2022/03/06 11:39:31;;;;;;;13.35;8.45;;;-0.10;58.90;;;;;;5035943;28;20053;-70
2022/03/06 11:42:02;;;;;;;10.60;7.25;;;-0.20;58.70;;;;;;5041037;28;20021;-74
2022/03/06 11:44:47;;;;;;;14.13;9.40;;;-0.30;58.50;;;;;;5037971;28;20079;-70
2022/03/06 11:47:13;;;;;;;14.45;9.23;;;-0.20;58.80;;;;;;5055554;28;20025;-69
2022/03/06 11:49:39;;;;;;;14.75;9.55;;;-0.20;58.60;;;;;;5037110;28;20021;-70
2022/03/06 11:52:33;;;;;;;15.70;10.45;;;-0.20;58.50;;;;;;5016483;28;20032;-69
2022/03/06 11:55:00;;;;;;;15.77;8.70;;;-0.20;58.60;;;;;;5032178;28;20045;-70
2022/03/06 11:57:41;;;;;;;13.43;7.95;;;-0.30;58.40;;;;;;5015827;28;20061;-70
2022/03/06 12:00:20;;;;;;;13.43;7.45;;;-0.30;58.30;;;;;;5036730;28;20049;-70
2022/03/06 12:02:54;;;;;;;13.80;8.70;;;-0.40;58.30;;;;;;5043575;28;20102;-70
2022/03/06 12:05:20;;;;;;;12.52;7.88;;;-0.30;58.60;;;;;;5044176;28;20048;-70
2022/03/06 12:07:47;;;;;;;14.55;9.48;;;-0.30;58.40;;;;;;5045768;28;20017;-70
2022/03/06 12:10:15;;;;;;;17.42;12.00;;;-0.30;59.10;;;;;;5037505;28;20403;-70
2022/03/06 12:12:41;;;;;;;24.13;12.60;;;-0.10;59.00;;;;;;5034460;28;20022;-69
2022/03/06 12:15:16;;;;;;;17.10;12.25;;;-0.10;58.50;;;;;;5033867;28;20071;-74
2022/03/06 12:17:42;;;;;;;11.27;7.30;;;0.00;58.60;;;;;;5034957;28;20074;-74
2022/03/06 12:20:08;;;;;;;10.38;7.75;;;-0.10;57.30;;;;;;5017252;28;20021;-74
2022/03/06 12:22:42;;;;;;;13.55;8.00;;;-0.10;56.90;;;;;;5017089;28;20411;-75
2022/03/06 12:25:11;;;;;;;10.70;7.32;;;-0.10;57.10;;;;;;5034992;28;20029;-75
2022/03/06 12:27:40;;;;;;;12.05;7.97;;;-0.20;56.40;;;;;;5034065;28;20487;-74
2022/03/06 12:30:08;;;;;;;11.07;7.32;;;-0.20;56.80;;;;;;5034482;28;20041;-74